Virtual LH

Virtual LH. There's no better way to fly
Since 2013.



AIRPORT MAP

METAR AND TAF INFORMATION

METAR FOR LEVC
ADDS - METARS form results

(0940 UTC 21 January 2019)
Data provider http://aviationweather.gov/metar/data/
 
METAR text: LEVC 210930Z 24005KT 9999 FEW030 10/01 Q1018 NOSIG
Conditions at: LEVC (VALENCIA (CIV/MI, ES) observed 0930 UTC 21 January 2019
Temperature: 10.0°C (50°F)
Dewpoint: 1.0°C (34°F) [RH = 53%]
Pressure (altimeter): 30.06 inches Hg (1018.0 mb)
Winds: from the WSW (240 degrees) at 6 MPH (5 knots; 2.6 m/s)
Visibility: 6 or more miles (10+ km)
Ceiling: at least 12,000 feet AGL
Clouds: few clouds at 3000 feet AGL
Weather: no significant weather observed at this time

METAR text: LEVC 210900Z 24005KT 9999 FEW030 08/01 Q1018 NOSIG
Conditions at: LEVC (VALENCIA (CIV/MI, ES) observed 0900 UTC 21 January 2019
Temperature: 8.0°C (46°F)
Dewpoint: 1.0°C (34°F) [RH = 61%]
Pressure (altimeter): 30.06 inches Hg (1018.0 mb)
Winds: from the WSW (240 degrees) at 6 MPH (5 knots; 2.6 m/s)
Visibility: 6 or more miles (10+ km)
Ceiling: at least 12,000 feet AGL
Clouds: few clouds at 3000 feet AGL
Weather: no significant weather observed at this time

Forecast for: LEVC (VALENCIA (CIV/MI, ES)
Text: TAF LEVC 210500Z 2106/2206 30008KT 9999 FEW030 TX16/2113Z TN04/2106Z
Forecast period: 0600 UTC 21 January 2019 to 0600 UTC 22 January 2019
Forecast type: FROM: standard forecast or significant change
Winds: from the WNW (300 degrees) at 9 MPH (8 knots; 4.1 m/s)
Visibility: 6 or more miles 10+ km)
Ceiling: at least 12,000 feet AGL
Clouds: few clouds at 3000 feet AGL
Weather: no significant weather forecast for this period
Text: PROB40
Forecast period: 1500 to 1800 UTC 21 January 2019
Forecast type: TEMPORARY: The following changes expected for less than half the time period
Winds: from the ENE (60 degrees) at 7 MPH (6 knots; 3.1 m/s)
Visibility: missing
Ceiling: unknown
Clouds: missing
Weather: no significant weather forecast for this period

RUNWAY INFORMATION

Runway 04 Runway length 5394 ft Runway width 148 ft
Runway elevation 205 ft Runway displaced threshold 0 ft Runway heading 38
Runway 22 Runway length 5394 ft Runway width 148 ft
Runway elevation 188 ft Runway displaced threshold 0 ft Runway heading 218
Runway 12 Runway length 8858 ft Runway width 148 ft
Runway elevation 225 ft Runway displaced threshold 0 ft Runway heading 116
Runway 30 Runway length 8858 ft Runway width 148 ft
Runway elevation 172 ft Runway displaced threshold 0 ft Runway heading 296

AIRPORT FREQUENCIES

Type APP Name APP Frequency 120.1 MHZ
Type ATIS Name ATIS Frequency 121.075 MHZ
Type GND Name GND Frequency 121.7 MHZ
Type TWR Name TWR Frequency 118.55 MHZ

AIRPORT NEAR NAVIGATION AIDS

Type NDB Name Valencia Frequency 400 KHZ
Type NDB Name Valencia Frequency 340 KHZ
Type NDB Name Sagunto Frequency 356 KHZ
Type VOR-DME Name Valencia Frequency 116100 KHZ